sensor_id;sensor_type;location;lat;lon;timestamp;pressure;altitude;pressure_sealevel;temperature;humidity
47280;BME280;34064;44.942;0.008;2022-11-15T00:00:34;98303.69;;;15.39;68.10
47280;BME280;34064;44.942;0.008;2022-11-15T00:03:01;98301.84;;;15.40;68.02
47280;BME280;34064;44.942;0.008;2022-11-15T00:05:27;98294.81;;;15.39;67.96
47280;BME280;34064;44.942;0.008;2022-11-15T00:07:53;98286.97;;;15.37;68.26
47280;BME280;34064;44.942;0.008;2022-11-15T00:10:20;98275.25;;;15.38;68.00
47280;BME280;34064;44.942;0.008;2022-11-15T00:12:46;98281.59;;;15.37;68.01
47280;BME280;34064;44.942;0.008;2022-11-15T00:15:12;98273.72;;;15.36;68.11
47280;BME280;34064;44.942;0.008;2022-11-15T00:17:38;98265.69;;;15.36;68.08
47280;BME280;34064;44.942;0.008;2022-11-15T00:20:05;98262.00;;;15.37;68.07
47280;BME280;34064;44.942;0.008;2022-11-15T00:22:33;98262.34;;;15.34;67.92
47280;BME280;34064;44.942;0.008;2022-11-15T00:24:59;98259.69;;;15.34;68.07
47280;BME280;34064;44.942;0.008;2022-11-15T00:27:26;98248.97;;;15.34;67.97
47280;BME280;34064;44.942;0.008;2022-11-15T00:29:53;98245.31;;;15.35;68.04
47280;BME280;34064;44.942;0.008;2022-11-15T00:32:19;98246.31;;;15.34;67.90
47280;BME280;34064;44.942;0.008;2022-11-15T00:34:46;98233.75;;;15.34;67.81
47280;BME280;34064;44.942;0.008;2022-11-15T00:37:12;98229.56;;;15.32;67.86
47280;BME280;34064;44.942;0.008;2022-11-15T00:39:38;98228.88;;;15.29;68.04
47280;BME280;34064;44.942;0.008;2022-11-15T00:42:05;98219.19;;;15.28;68.02
47280;BME280;34064;44.942;0.008;2022-11-15T00:44:31;98217.50;;;15.27;67.93
47280;BME280;34064;44.942;0.008;2022-11-15T00:46:57;98215.00;;;15.26;67.96
47280;BME280;34064;44.942;0.008;2022-11-15T00:49:24;98209.13;;;15.22;68.15
47280;BME280;34064;44.942;0.008;2022-11-15T00:51:50;98198.44;;;15.22;68.09
47280;BME280;34064;44.942;0.008;2022-11-15T00:54:16;98198.44;;;15.22;68.06
47280;BME280;34064;44.942;0.008;2022-11-15T00:56:43;98186.06;;;15.21;68.03
47280;BME280;34064;44.942;0.008;2022-11-15T00:59:09;98197.06;;;15.18;67.99
47280;BME280;34064;44.942;0.008;2022-11-15T01:01:35;98188.03;;;15.19;68.06
47280;BME280;34064;44.942;0.008;2022-11-15T01:04:01;98186.72;;;15.15;68.03
47280;BME280;34064;44.942;0.008;2022-11-15T01:06:28;98181.34;;;15.15;68.13
47280;BME280;34064;44.942;0.008;2022-11-15T01:08:54;98171.78;;;15.12;68.12
47280;BME280;34064;44.942;0.008;2022-11-15T01:11:20;98173.81;;;15.10;68.16
47280;BME280;34064;44.942;0.008;2022-11-15T01:13:47;98163.94;;;15.11;68.11
47280;BME280;34064;44.942;0.008;2022-11-15T01:16:16;98166.78;;;15.09;68.19
47280;BME280;34064;44.942;0.008;2022-11-15T01:18:44;98158.78;;;15.09;68.08
47280;BME280;34064;44.942;0.008;2022-11-15T01:21:13;98153.41;;;15.09;68.29
47280;BME280;34064;44.942;0.008;2022-11-15T01:23:40;98150.88;;;15.08;68.16
47280;BME280;34064;44.942;0.008;2022-11-15T01:26:11;98144.88;;;15.06;68.26
47280;BME280;34064;44.942;0.008;2022-11-15T01:28:40;98152.22;;;15.04;68.43
47280;BME280;34064;44.942;0.008;2022-11-15T01:31:20;98141.84;;;15.01;68.61
47280;BME280;34064;44.942;0.008;2022-11-15T01:33:47;98134.50;;;15.03;68.30
47280;BME280;34064;44.942;0.008;2022-11-15T01:36:19;98135.31;;;15.03;68.38
47280;BME280;34064;44.942;0.008;2022-11-15T01:38:54;98120.97;;;15.04;68.17
47280;BME280;34064;44.942;0.008;2022-11-15T01:41:24;98122.94;;;15.02;68.17
47280;BME280;34064;44.942;0.008;2022-11-15T01:43:53;98116.78;;;15.02;68.17
47280;BME280;34064;44.942;0.008;2022-11-15T01:46:30;98106.41;;;14.98;68.21
47280;BME280;34064;44.942;0.008;2022-11-15T01:49:03;98111.91;;;14.97;68.14
47280;BME280;34064;44.942;0.008;2022-11-15T01:51:33;98109.41;;;14.95;68.34
47280;BME280;34064;44.942;0.008;2022-11-15T01:54:04;98101.72;;;14.92;68.23
47280;BME280;34064;44.942;0.008;2022-11-15T01:56:36;98098.03;;;14.93;68.33
47280;BME280;34064;44.942;0.008;2022-11-15T01:59:07;98094.34;;;14.86;69.01
47280;BME280;34064;44.942;0.008;2022-11-15T02:01:34;98090.34;;;14.90;68.52
47280;BME280;34064;44.942;0.008;2022-11-15T02:04:47;98072.97;;;14.94;68.40
47280;BME280;34064;44.942;0.008;2022-11-15T02:07:09;98069.63;;;14.92;68.36
47280;BME280;34064;44.942;0.008;2022-11-15T02:09:38;98058.59;;;14.95;68.32
47280;BME280;34064;44.942;0.008;2022-11-15T02:12:05;98044.88;;;14.90;68.42
47280;BME280;34064;44.942;0.008;2022-11-15T02:14:33;98044.88;;;14.90;68.42
47280;BME280;34064;44.942;0.008;2022-11-15T02:19:47;98040.69;;;14.88;68.31
47280;BME280;34064;44.942;0.008;2022-11-15T02:39:46;97997.72;;;14.81;68.31
47280;BME280;34064;44.942;0.008;2022-11-15T02:42:27;97980.00;;;14.80;68.42
47280;BME280;34064;44.942;0.008;2022-11-15T02:45:36;97979.38;;;14.78;68.29
47280;BME280;34064;44.942;0.008;2022-11-15T02:48:04;97972.34;;;14.77;68.42
47280;BME280;34064;44.942;0.008;2022-11-15T02:50:33;97970.50;;;14.77;68.46
47280;BME280;34064;44.942;0.008;2022-11-15T02:53:00;97977.69;;;14.77;68.25
47280;BME280;34064;44.942;0.008;2022-11-15T02:55:34;97971.34;;;14.78;68.33
47280;BME280;34064;44.942;0.008;2022-11-15T03:05:56;97961.78;;;14.75;68.17
47280;BME280;34064;44.942;0.008;2022-11-15T03:08:37;97961.28;;;14.72;68.46
47280;BME280;34064;44.942;0.008;2022-11-15T03:11:15;97964.63;;;14.74;68.32
47280;BME280;34064;44.942;0.008;2022-11-15T03:19:31;97957.31;;;14.76;68.46
47280;BME280;34064;44.942;0.008;2022-11-15T03:22:01;97958.13;;;14.76;68.26
47280;BME280;34064;44.942;0.008;2022-11-15T03:24:31;97956.31;;;14.77;68.28
47280;BME280;34064;44.942;0.008;2022-11-15T03:27:00;97943.75;;;14.77;68.29
47280;BME280;34064;44.942;0.008;2022-11-15T03:29:34;97955.31;;;14.78;68.37
47280;BME280;34064;44.942;0.008;2022-11-15T03:32:15;97951.47;;;14.80;68.33
47280;BME280;34064;44.942;0.008;2022-11-15T03:34:50;97944.25;;;14.81;68.29
47280;BME280;34064;44.942;0.008;2022-11-15T03:37:21;97938.91;;;14.81;68.31
47280;BME280;34064;44.942;0.008;2022-11-15T03:39:48;97933.91;;;14.78;68.45
47280;BME280;34064;44.942;0.008;2022-11-15T03:45:11;97922.06;;;14.80;68.45
47280;BME280;34064;44.942;0.008;2022-11-15T03:48:01;97922.19;;;14.79;68.43
47280;BME280;34064;44.942;0.008;2022-11-15T03:50:29;97923.72;;;14.81;68.17
47280;BME280;34064;44.942;0.008;2022-11-15T03:52:56;97910.50;;;14.80;68.40
47280;BME280;34064;44.942;0.008;2022-11-15T03:55:23;97910.50;;;14.80;68.38
47280;BME280;34064;44.942;0.008;2022-11-15T03:57:52;97907.19;;;14.78;68.59
47280;BME280;34064;44.942;0.008;2022-11-15T04:00:20;97904.50;;;14.78;68.50
47280;BME280;34064;44.942;0.008;2022-11-15T04:02:46;97897.50;;;14.77;68.48
47280;BME280;34064;44.942;0.008;2022-11-15T04:05:13;97893.97;;;14.76;68.55
47280;BME280;34064;44.942;0.008;2022-11-15T04:07:39;97894.97;;;14.75;68.43
47280;BME280;34064;44.942;0.008;2022-11-15T04:10:06;97885.13;;;14.76;68.32
47280;BME280;34064;44.942;0.008;2022-11-15T04:12:40;97887.94;;;14.74;68.37
47280;BME280;34064;44.942;0.008;2022-11-15T04:15:15;97882.09;;;14.71;68.72
47280;BME280;34064;44.942;0.008;2022-11-15T04:17:44;97877.44;;;14.73;68.38
47280;BME280;34064;44.942;0.008;2022-11-15T04:20:23;97872.06;;;14.73;68.57
47280;BME280;34064;44.942;0.008;2022-11-15T04:23:13;97872.06;;;14.73;68.34
47280;BME280;34064;44.942;0.008;2022-11-15T04:26:01;97866.72;;;14.73;68.53
47280;BME280;34064;44.942;0.008;2022-11-15T04:28:28;97873.06;;;14.72;68.41
47280;BME280;34064;44.942;0.008;2022-11-15T04:30:54;97868.72;;;14.71;68.50
47280;BME280;34064;44.942;0.008;2022-11-15T04:33:21;97858.03;;;14.71;68.64
47280;BME280;34064;44.942;0.008;2022-11-15T04:35:48;97854.53;;;14.70;68.63
47280;BME280;34064;44.942;0.008;2022-11-15T04:38:35;97850.03;;;14.71;68.50
47280;BME280;34064;44.942;0.008;2022-11-15T04:41:02;97857.22;;;14.70;68.44
47280;BME280;34064;44.942;0.008;2022-11-15T04:43:29;97850.69;;;14.73;68.57
47280;BME280;34064;44.942;0.008;2022-11-15T04:45:55;97852.69;;;14.71;68.45
47280;BME280;34064;44.942;0.008;2022-11-15T04:48:22;97852.69;;;14.71;68.58
47280;BME280;34064;44.942;0.008;2022-11-15T04:50:48;97851.03;;;14.70;68.51
47280;BME280;34064;44.942;0.008;2022-11-15T04:53:15;97847.34;;;14.71;68.37
47280;BME280;34064;44.942;0.008;2022-11-15T04:55:45;97840.69;;;14.66;68.73
47280;BME280;34064;44.942;0.008;2022-11-15T04:58:11;97831.66;;;14.68;68.64
47280;BME280;34064;44.942;0.008;2022-11-15T05:00:38;97833.34;;;14.69;68.46
47280;BME280;34064;44.942;0.008;2022-11-15T05:03:05;97830.00;;;14.66;68.70
47280;BME280;34064;44.942;0.008;2022-11-15T05:05:50;97825.63;;;14.65;68.43
47280;BME280;34064;44.942;0.008;2022-11-15T05:08:16;97830.00;;;14.66;68.47
47280;BME280;34064;44.942;0.008;2022-11-15T05:10:43;97831.78;;;14.66;68.59
47280;BME280;34064;44.942;0.008;2022-11-15T05:13:09;97829.28;;;14.64;68.41
47280;BME280;34064;44.942;0.008;2022-11-15T05:15:35;97828.28;;;14.65;68.46
47280;BME280;34064;44.942;0.008;2022-11-15T05:18:02;97829.28;;;14.64;68.60
47280;BME280;34064;44.942;0.008;2022-11-15T05:20:28;97834.81;;;14.63;68.45
47280;BME280;34064;44.942;0.008;2022-11-15T05:22:54;97834.81;;;14.63;68.51
47280;BME280;34064;44.942;0.008;2022-11-15T05:25:24;97826.13;;;14.61;68.59
47280;BME280;34064;44.942;0.008;2022-11-15T05:27:50;97822.25;;;14.63;68.44
47280;BME280;34064;44.942;0.008;2022-11-15T05:30:17;97825.25;;;14.60;68.46
47280;BME280;34064;44.942;0.008;2022-11-15T05:32:44;97824.25;;;14.61;68.50
47280;BME280;34064;44.942;0.008;2022-11-15T05:35:15;97828.59;;;14.62;68.61
47280;BME280;34064;44.942;0.008;2022-11-15T05:37:44;97839.31;;;14.62;68.54
47280;BME280;34064;44.942;0.008;2022-11-15T05:40:11;97819.28;;;14.58;68.66
47280;BME280;34064;44.942;0.008;2022-11-15T05:42:38;97811.59;;;14.55;68.75
47280;BME280;34064;44.942;0.008;2022-11-15T05:45:06;97812.75;;;14.53;69.08
47280;BME280;34064;44.942;0.008;2022-11-15T05:47:35;97810.75;;;14.55;68.99
47280;BME280;34064;44.942;0.008;2022-11-15T05:50:03;97803.56;;;14.55;68.74
47280;BME280;34064;44.942;0.008;2022-11-15T05:52:32;97804.25;;;14.57;68.60
47280;BME280;34064;44.942;0.008;2022-11-15T05:55:00;97802.56;;;14.56;68.75
47280;BME280;34064;44.942;0.008;2022-11-15T05:57:27;97796.22;;;14.57;68.67
47280;BME280;34064;44.942;0.008;2022-11-15T05:59:54;97792.56;;;14.58;68.64
47280;BME280;34064;44.942;0.008;2022-11-15T06:02:21;97790.19;;;14.55;68.63
47280;BME280;34064;44.942;0.008;2022-11-15T06:04:47;97796.72;;;14.53;68.90
47280;BME280;34064;44.942;0.008;2022-11-15T06:07:14;97795.53;;;14.55;68.71
47280;BME280;34064;44.942;0.008;2022-11-15T06:09:40;97797.53;;;14.53;68.75
47280;BME280;34064;44.942;0.008;2022-11-15T06:12:06;97797.53;;;14.53;68.78
47280;BME280;34064;44.942;0.008;2022-11-15T06:14:33;97796.72;;;14.53;68.76
47280;BME280;34064;44.942;0.008;2022-11-15T06:16:59;97796.38;;;14.56;68.78
47280;BME280;34064;44.942;0.008;2022-11-15T06:19:25;97794.72;;;14.55;69.11
47280;BME280;34064;44.942;0.008;2022-11-15T06:21:52;97793.56;;;14.57;68.98
47280;BME280;34064;44.942;0.008;2022-11-15T06:24:18;97789.03;;;14.58;69.00
47280;BME280;34064;44.942;0.008;2022-11-15T06:26:44;97795.22;;;14.58;69.06
47280;BME280;34064;44.942;0.008;2022-11-15T06:29:11;97785.19;;;14.60;68.99
47280;BME280;34064;44.942;0.008;2022-11-15T06:31:37;97788.88;;;14.59;69.20
47280;BME280;34064;44.942;0.008;2022-11-15T06:34:03;97781.69;;;14.60;69.01
47280;BME280;34064;44.942;0.008;2022-11-15T06:36:30;97789.88;;;14.58;69.45
47280;BME280;34064;44.942;0.008;2022-11-15T06:38:57;97785.84;;;14.62;69.21
47280;BME280;34064;44.942;0.008;2022-11-15T06:41:24;97786.22;;;14.68;69.15
47280;BME280;34064;44.942;0.008;2022-11-15T06:43:50;97794.88;;;14.70;69.00
47280;BME280;34064;44.942;0.008;2022-11-15T06:46:16;97792.22;;;14.70;69.12
47280;BME280;34064;44.942;0.008;2022-11-15T06:48:42;97786.88;;;14.70;69.14
47280;BME280;34064;44.942;0.008;2022-11-15T06:51:09;97792.22;;;14.70;68.99
47280;BME280;34064;44.942;0.008;2022-11-15T06:53:35;97783.19;;;14.71;69.08
47280;BME280;34064;44.942;0.008;2022-11-15T06:56:03;97782.19;;;14.72;69.32
47280;BME280;34064;44.942;0.008;2022-11-15T06:58:30;97787.41;;;14.73;69.46
47280;BME280;34064;44.942;0.008;2022-11-15T07:01:02;97790.72;;;14.75;69.63
47280;BME280;34064;44.942;0.008;2022-11-15T07:03:29;97781.69;;;14.76;69.47
47280;BME280;34064;44.942;0.008;2022-11-15T07:05:56;97788.38;;;14.80;69.63
47280;BME280;34064;44.942;0.008;2022-11-15T07:08:24;97782.66;;;14.84;69.31
47280;BME280;34064;44.942;0.008;2022-11-15T07:10:52;97777.84;;;14.87;69.43
47280;BME280;34064;44.942;0.008;2022-11-15T07:13:19;97782.16;;;14.88;69.17
47280;BME280;34064;44.942;0.008;2022-11-15T07:15:45;97770.13;;;14.92;69.49
47280;BME280;34064;44.942;0.008;2022-11-15T07:18:12;97775.47;;;14.92;69.61
47280;BME280;34064;44.942;0.008;2022-11-15T07:20:38;97769.81;;;14.95;69.32
47280;BME280;34064;44.942;0.008;2022-11-15T07:23:06;97772.28;;;14.97;69.56
47280;BME280;34064;44.942;0.008;2022-11-15T07:25:32;97773.78;;;15.00;69.51
47280;BME280;34064;44.942;0.008;2022-11-15T07:27:59;97770.13;;;15.01;69.58
47280;BME280;34064;44.942;0.008;2022-11-15T07:30:26;97766.91;;;15.05;69.43
47280;BME280;34064;44.942;0.008;2022-11-15T07:33:00;97762.25;;;15.07;69.51
47280;BME280;34064;44.942;0.008;2022-11-15T07:35:28;97769.09;;;15.10;69.43
47280;BME280;34064;44.942;0.008;2022-11-15T07:37:58;97769.75;;;15.12;69.67
47280;BME280;34064;44.942;0.008;2022-11-15T07:40:29;97762.53;;;15.12;69.65
47280;BME280;34064;44.942;0.008;2022-11-15T07:43:06;97767.38;;;15.17;69.54
47280;BME280;34064;44.942;0.008;2022-11-15T07:45:33;97763.72;;;15.18;69.52
47280;BME280;34064;44.942;0.008;2022-11-15T07:48:00;97767.03;;;15.20;69.66
47280;BME280;34064;44.942;0.008;2022-11-15T07:50:27;97761.38;;;15.23;69.55
47280;BME280;34064;44.942;0.008;2022-11-15T07:52:58;97759.50;;;15.24;69.45
47280;BME280;34064;44.942;0.008;2022-11-15T07:55:26;97759.69;;;15.22;69.86
47280;BME280;34064;44.942;0.008;2022-11-15T07:57:59;97753.63;;;15.28;69.49
47280;BME280;34064;44.942;0.008;2022-11-15T08:00:25;97764.81;;;15.32;69.62
47280;BME280;34064;44.942;0.008;2022-11-15T08:02:52;97756.66;;;15.34;69.47
47280;BME280;34064;44.942;0.008;2022-11-15T08:05:18;97759.47;;;15.32;70.00
47280;BME280;34064;44.942;0.008;2022-11-15T08:07:44;97758.13;;;15.36;70.07
47280;BME280;34064;44.942;0.008;2022-11-15T08:10:11;97757.59;;;15.41;69.83
47280;BME280;34064;44.942;0.008;2022-11-15T08:12:38;97750.72;;;15.47;69.68
47280;BME280;34064;44.942;0.008;2022-11-15T08:15:04;97746.53;;;15.52;69.50
47280;BME280;34064;44.942;0.008;2022-11-15T08:17:31;97745.81;;;15.58;69.50
47280;BME280;34064;44.942;0.008;2022-11-15T08:19:58;97733.91;;;15.61;69.50
47280;BME280;34064;44.942;0.008;2022-11-15T08:22:25;97744.47;;;15.63;69.65
47280;BME280;34064;44.942;0.008;2022-11-15T08:24:51;97731.38;;;15.68;69.41
47280;BME280;34064;44.942;0.008;2022-11-15T08:27:17;97727.34;;;15.72;69.58
47280;BME280;34064;44.942;0.008;2022-11-15T08:29:45;97732.31;;;15.75;69.70
47280;BME280;34064;44.942;0.008;2022-11-15T08:32:11;97730.47;;;15.84;69.88
47280;BME280;34064;44.942;0.008;2022-11-15T08:34:38;97723.19;;;15.93;69.50
47280;BME280;34064;44.942;0.008;2022-11-15T08:37:05;97728.88;;;15.98;69.52
47280;BME280;34064;44.942;0.008;2022-11-15T08:39:31;97726.84;;;16.00;69.46
47280;BME280;34064;44.942;0.008;2022-11-15T08:41:58;97723.66;;;16.04;69.25
47280;BME280;34064;44.942;0.008;2022-11-15T08:44:25;97721.06;;;16.11;69.29
47280;BME280;34064;44.942;0.008;2022-11-15T08:46:51;97733.44;;;16.12;69.11
47280;BME280;34064;44.942;0.008;2022-11-15T08:49:18;97731.78;;;16.11;69.18
47280;BME280;34064;44.942;0.008;2022-11-15T08:51:45;97732.28;;;16.15;69.32
47280;BME280;34064;44.942;0.008;2022-11-15T08:54:11;97731.06;;;16.17;69.09
47280;BME280;34064;44.942;0.008;2022-11-15T08:56:37;97723.50;;;16.21;69.18
47280;BME280;34064;44.942;0.008;2022-11-15T08:59:04;97722.13;;;16.25;69.05
47280;BME280;34064;44.942;0.008;2022-11-15T09:01:30;97724.25;;;16.30;68.90
47280;BME280;34064;44.942;0.008;2022-11-15T09:03:58;97718.28;;;16.28;69.09
47280;BME280;34064;44.942;0.008;2022-11-15T09:06:24;97716.41;;;16.28;69.09
47280;BME280;34064;44.942;0.008;2022-11-15T09:08:51;97714.38;;;16.30;68.99
47280;BME280;34064;44.942;0.008;2022-11-15T09:11:17;97719.56;;;16.32;69.03
47280;BME280;34064;44.942;0.008;2022-11-15T09:13:46;97720.50;;;16.39;68.96
47280;BME280;34064;44.942;0.008;2022-11-15T09:16:12;97715.78;;;16.41;68.99
47280;BME280;34064;44.942;0.008;2022-11-15T09:18:41;97726.16;;;16.44;68.99
47280;BME280;34064;44.942;0.008;2022-11-15T09:21:08;97723.47;;;16.44;69.09
47280;BME280;34064;44.942;0.008;2022-11-15T09:23:35;97726.44;;;16.49;69.26
47280;BME280;34064;44.942;0.008;2022-11-15T09:26:03;97705.84;;;16.50;68.84
47280;BME280;34064;44.942;0.008;2022-11-15T09:28:31;97705.75;;;16.58;68.74
47280;BME280;34064;44.942;0.008;2022-11-15T09:30:59;97698.25;;;16.53;68.74
47280;BME280;34064;44.942;0.008;2022-11-15T09:33:26;97697.25;;;16.55;68.85
47280;BME280;34064;44.942;0.008;2022-11-15T09:35:53;97698.25;;;16.53;68.88
47280;BME280;34064;44.942;0.008;2022-11-15T09:38:20;97700.28;;;16.51;68.87
47280;BME280;34064;44.942;0.008;2022-11-15T09:40:52;97693.56;;;16.56;68.85
47280;BME280;34064;44.942;0.008;2022-11-15T09:44:03;97686.44;;;16.63;68.78
47280;BME280;34064;44.942;0.008;2022-11-15T09:46:37;97689.38;;;16.68;68.84
47280;BME280;34064;44.942;0.008;2022-11-15T09:49:08;97676.63;;;16.70;68.83
47280;BME280;34064;44.942;0.008;2022-11-15T09:51:43;97674.59;;;16.72;69.04
47280;BME280;34064;44.942;0.008;2022-11-15T09:54:37;97677.19;;;16.80;68.83
47280;BME280;34064;44.942;0.008;2022-11-15T09:59:55;97671.81;;;16.80;68.97
47280;BME280;34064;44.942;0.008;2022-11-15T10:02:46;97667.94;;;16.83;68.77
47280;BME280;34064;44.942;0.008;2022-11-15T10:05:20;97673.75;;;16.87;68.99
47280;BME280;34064;44.942;0.008;2022-11-15T10:08:03;97674.41;;;16.89;68.99
47280;BME280;34064;44.942;0.008;2022-11-15T10:10:40;97667.03;;;16.91;68.79
47280;BME280;34064;44.942;0.008;2022-11-15T10:13:15;97661.84;;;16.89;69.10
47280;BME280;34064;44.942;0.008;2022-11-15T10:15:44;97670.34;;;16.93;69.03
47280;BME280;34064;44.942;0.008;2022-11-15T10:18:48;97674.53;;;16.95;69.03
47280;BME280;34064;44.942;0.008;2022-11-15T10:21:24;97670.00;;;16.96;69.08
47280;BME280;34064;44.942;0.008;2022-11-15T10:23:53;97664.91;;;17.01;68.91
47280;BME280;34064;44.942;0.008;2022-11-15T10:26:20;97663.25;;;17.00;69.14
47280;BME280;34064;44.942;0.008;2022-11-15T10:28:47;97658.53;;;17.02;68.89
47280;BME280;34064;44.942;0.008;2022-11-15T10:31:25;97662.50;;;17.06;69.06
47280;BME280;34064;44.942;0.008;2022-11-15T10:34:10;97658.63;;;17.09;68.97
47280;BME280;34064;44.942;0.008;2022-11-15T10:36:38;97659.44;;;17.09;68.84
47280;BME280;34064;44.942;0.008;2022-11-15T10:39:07;97667.31;;;17.11;68.97
47280;BME280;34064;44.942;0.008;2022-11-15T10:41:40;97664.44;;;17.12;69.06
47280;BME280;34064;44.942;0.008;2022-11-15T10:44:21;97656.84;;;17.16;69.18
47280;BME280;34064;44.942;0.008;2022-11-15T10:49:23;97644.91;;;17.19;69.29
47280;BME280;34064;44.942;0.008;2022-11-15T10:52:00;97654.25;;;17.23;69.29
47280;BME280;34064;44.942;0.008;2022-11-15T10:54:37;97651.81;;;17.28;69.16
47280;BME280;34064;44.942;0.008;2022-11-15T10:57:14;97655.16;;;17.30;69.23
47280;BME280;34064;44.942;0.008;2022-11-15T10:59:51;97642.00;;;17.35;69.21
47280;BME280;34064;44.942;0.008;2022-11-15T11:04:53;97619.13;;;17.39;69.32
47280;BME280;34064;44.942;0.008;2022-11-15T11:07:34;97618.13;;;17.40;69.19
47280;BME280;34064;44.942;0.008;2022-11-15T11:10:17;97616.69;;;17.44;68.98
47280;BME280;34064;44.942;0.008;2022-11-15T11:12:44;97614.28;;;17.50;68.81
47280;BME280;34064;44.942;0.008;2022-11-15T11:15:13;97604.81;;;17.54;68.93
47280;BME280;34064;44.942;0.008;2022-11-15T11:25:56;97561.84;;;17.75;68.59
47280;BME280;34064;44.942;0.008;2022-11-15T11:28:51;97547.84;;;17.80;68.66
47280;BME280;34064;44.942;0.008;2022-11-15T11:31:51;97539.84;;;17.87;68.29
47280;BME280;34064;44.942;0.008;2022-11-15T11:37:23;97539.25;;;17.91;68.24
47280;BME280;34064;44.942;0.008;2022-11-15T11:40:19;97536.00;;;17.96;68.33
47280;BME280;34064;44.942;0.008;2022-11-15T11:48:38;97526.19;;;18.10;67.51
47280;BME280;34064;44.942;0.008;2022-11-15T11:56:27;97521.13;;;18.00;67.58
47280;BME280;34064;44.942;0.008;2022-11-15T11:58:59;97519.50;;;17.99;67.71
47280;BME280;34064;44.942;0.008;2022-11-15T12:01:36;97521.56;;;17.97;67.78
47280;BME280;34064;44.942;0.008;2022-11-15T12:07:21;97501.72;;;17.98;67.77
47280;BME280;34064;44.942;0.008;2022-11-15T12:12:36;97500.50;;;18.01;67.59
47280;BME280;34064;44.942;0.008;2022-11-15T12:15:18;97504.00;;;18.01;67.64
47280;BME280;34064;44.942;0.008;2022-11-15T12:17:46;97499.84;;;17.99;67.74
47280;BME280;34064;44.942;0.008;2022-11-15T12:20:36;97486.84;;;18.02;67.67
47280;BME280;34064;44.942;0.008;2022-11-15T12:23:32;97488.06;;;18.00;67.72
47280;BME280;34064;44.942;0.008;2022-11-15T12:26:28;97493.84;;;17.97;67.84
47280;BME280;34064;44.942;0.008;2022-11-15T12:29:12;97483.94;;;17.97;67.65
47280;BME280;34064;44.942;0.008;2022-11-15T12:31:45;97483.09;;;17.97;67.96
47280;BME280;34064;44.942;0.008;2022-11-15T12:34:45;97471.97;;;18.00;67.71
47280;BME280;34064;44.942;0.008;2022-11-15T12:37:46;97488.06;;;18.00;67.78
47280;BME280;34064;44.942;0.008;2022-11-15T12:40:28;97466.78;;;17.98;67.53
47280;BME280;34064;44.942;0.008;2022-11-15T12:45:38;97474.06;;;18.04;67.32
47280;BME280;34064;44.942;0.008;2022-11-15T13:07:01;97468.16;;;17.94;67.29
47280;BME280;34064;44.942;0.008;2022-11-15T13:20:02;97443.19;;;17.93;67.28
47280;BME280;34064;44.942;0.008;2022-11-15T13:22:39;97443.34;;;17.92;67.43
47280;BME280;34064;44.942;0.008;2022-11-15T13:30:37;97439.66;;;17.93;67.30
47280;BME280;34064;44.942;0.008;2022-11-15T13:33:50;97442.16;;;17.95;67.22
47280;BME280;34064;44.942;0.008;2022-11-15T13:38:43;97434.69;;;17.90;67.61
47280;BME280;34064;44.942;0.008;2022-11-15T13:41:25;97438.84;;;17.92;67.53
47280;BME280;34064;44.942;0.008;2022-11-15T13:43:52;97426.03;;;17.95;67.35
47280;BME280;34064;44.942;0.008;2022-11-15T13:46:29;97428.53;;;17.96;67.49
47280;BME280;34064;44.942;0.008;2022-11-15T13:49:05;97423.41;;;18.01;67.21
47280;BME280;34064;44.942;0.008;2022-11-15T13:51:54;97420.31;;;18.04;67.07
47280;BME280;34064;44.942;0.008;2022-11-15T13:54:26;97415.34;;;18.01;67.00
47280;BME280;34064;44.942;0.008;2022-11-15T13:56:57;97413.66;;;18.00;67.23
47280;BME280;34064;44.942;0.008;2022-11-15T13:59:28;97397.16;;;18.03;66.47
47280;BME280;34064;44.942;0.008;2022-11-15T14:01:57;97406.66;;;17.99;66.93
47280;BME280;34064;44.942;0.008;2022-11-15T14:04:26;97412.06;;;18.06;66.50
47280;BME280;34064;44.942;0.008;2022-11-15T14:06:59;97401.91;;;18.01;66.88
47280;BME280;34064;44.942;0.008;2022-11-15T14:09:36;97396.94;;;18.05;66.48
47280;BME280;34064;44.942;0.008;2022-11-15T14:12:33;97393.44;;;18.04;66.84
47280;BME280;34064;44.942;0.008;2022-11-15T14:15:18;97394.25;;;18.05;66.95
47280;BME280;34064;44.942;0.008;2022-11-15T14:17:45;97388.06;;;18.04;66.97
47280;BME280;34064;44.942;0.008;2022-11-15T14:20:31;97391.41;;;18.06;66.62
47280;BME280;34064;44.942;0.008;2022-11-15T14:23:26;97378.59;;;18.08;66.38
47280;BME280;34064;44.942;0.008;2022-11-15T14:25:56;97368.88;;;18.07;66.39
47280;BME280;34064;44.942;0.008;2022-11-15T14:30:53;97378.34;;;18.03;66.20
47280;BME280;34064;44.942;0.008;2022-11-15T14:33:28;97383.50;;;17.98;66.48
47280;BME280;34064;44.942;0.008;2022-11-15T14:35:57;97370.69;;;18.00;66.16
47280;BME280;34064;44.942;0.008;2022-11-15T14:38:27;97381.19;;;17.95;66.33
47280;BME280;34064;44.942;0.008;2022-11-15T14:40:53;97381.41;;;17.93;66.42
47280;BME280;34064;44.942;0.008;2022-11-15T14:43:21;97381.56;;;17.92;66.14
47280;BME280;34064;44.942;0.008;2022-11-15T14:45:47;97384.69;;;17.89;66.28
47280;BME280;34064;44.942;0.008;2022-11-15T14:48:14;97390.44;;;17.86;66.08
47280;BME280;34064;44.942;0.008;2022-11-15T14:50:40;97392.50;;;17.84;66.28
47280;BME280;34064;44.942;0.008;2022-11-15T14:53:10;97401.78;;;17.81;66.59
47280;BME280;34064;44.942;0.008;2022-11-15T14:55:37;97448.22;;;17.75;66.94
47280;BME280;34064;44.942;0.008;2022-11-15T14:58:05;97451.69;;;17.69;67.64
47280;BME280;34064;44.942;0.008;2022-11-15T15:00:38;97467.75;;;17.62;67.89
47280;BME280;34064;44.942;0.008;2022-11-15T15:03:05;97462.94;;;17.51;68.24
47280;BME280;34064;44.942;0.008;2022-11-15T15:05:38;97476.53;;;17.49;68.50
47280;BME280;34064;44.942;0.008;2022-11-15T15:08:06;97474.06;;;17.48;68.06
47280;BME280;34064;44.942;0.008;2022-11-15T15:10:37;97460.41;;;17.42;67.70
47280;BME280;34064;44.942;0.008;2022-11-15T15:13:05;97476.44;;;17.36;68.05
47280;BME280;34064;44.942;0.008;2022-11-15T15:15:36;97480.97;;;17.35;67.82